createdAt,value
2019-04-05T00:02:21.099Z,97326.03
2019-04-05T00:04:53.271Z,97333.30
2019-04-05T00:07:24.953Z,97335.83
2019-04-05T00:09:56.899Z,97331.66
2019-04-05T00:12:33.423Z,97330.25
2019-04-05T00:15:15.089Z,97322.55
2019-04-05T00:17:45.195Z,97312.42
2019-04-05T00:20:13.062Z,97300.30
2019-04-05T00:22:44.897Z,97309.64
2019-04-05T00:25:16.708Z,97295.39
2019-04-05T00:27:48.590Z,97286.08
2019-04-05T00:30:20.253Z,97281.11
2019-04-05T00:32:51.941Z,97282.36
2019-04-05T00:35:25.515Z,97288.21
2019-04-05T00:37:57.420Z,97289.88
2019-04-05T00:40:29.793Z,97301.83
2019-04-05T00:43:01.537Z,97298.78
2019-04-05T00:45:33.710Z,97306.53
2019-04-05T00:48:05.640Z,97302.31
2019-04-05T00:50:39.678Z,97303.45
2019-04-05T00:53:12.365Z,97297.25
2019-04-05T00:55:44.435Z,97301.34
2019-04-05T00:58:16.673Z,97297.02
2019-04-05T01:00:48.605Z,97294.16
2019-04-05T01:03:20.818Z,97289.52
2019-04-05T01:05:52.740Z,97286.98
2019-04-05T01:08:24.766Z,97294.38
2019-04-05T01:10:56.561Z,97296.78
2019-04-05T01:13:29.360Z,97297.50
2019-04-05T01:16:01.827Z,97302.83
2019-04-05T01:18:33.826Z,97306.91
2019-04-05T01:21:06.509Z,97304.42
2019-04-05T01:23:38.753Z,97299.25
2019-04-05T01:26:11.068Z,97295.25
2019-04-05T01:28:42.958Z,97297.22
2019-04-05T01:31:14.719Z,97292.64
2019-04-05T01:33:46.720Z,97292.59
2019-04-05T01:36:18.585Z,97302.06
2019-04-05T01:38:51.393Z,97306.88
2019-04-05T01:41:23.090Z,97311.86
2019-04-05T01:43:56.082Z,97308.73
2019-04-05T01:46:28.041Z,97305.77
2019-04-05T01:49:02.133Z,97306.47
2019-04-05T01:51:34.581Z,97305.37
2019-04-05T01:54:15.943Z,97308.83
2019-04-05T01:56:48.333Z,97311.74
2019-04-05T01:59:20.021Z,97305.55
2019-04-05T02:01:52.049Z,97311.67
2019-04-05T02:04:33.175Z,97304.14
2019-04-05T02:07:05.287Z,97314.25
2019-04-05T02:09:40.716Z,97318.09
2019-04-05T02:12:12.742Z,97317.34
2019-04-05T02:14:51.619Z,97316.86
2019-04-05T02:17:23.356Z,97312.34
2019-04-05T02:19:59.222Z,97304.37
2019-04-05T02:22:30.966Z,97307.06
2019-04-05T02:25:02.620Z,97312.08
2019-04-05T02:27:34.313Z,97299.61
2019-04-05T02:30:06.483Z,97306.20
2019-04-05T02:32:38.357Z,97322.09
2019-04-05T02:35:11.330Z,97330.36
2019-04-05T02:37:43.184Z,97334.48
2019-04-05T02:40:16.998Z,97339.34
2019-04-05T02:42:51.931Z,97337.16
2019-04-05T02:45:24.358Z,97340.23
2019-04-05T02:48:01.518Z,97340.27
2019-04-05T02:50:35.899Z,97330.51
2019-04-05T02:53:10.275Z,97328.13
2019-04-05T02:55:43.423Z,97323.71
2019-04-05T02:58:16.169Z,97330.86
2019-04-05T03:00:48.631Z,97334.34
2019-04-05T03:03:20.394Z,97339.60
2019-04-05T03:05:52.439Z,97340.72
2019-04-05T03:08:24.515Z,97348.66
2019-04-05T03:11:09.874Z,97342.11
2019-04-05T03:13:50.060Z,97338.23
2019-04-05T03:16:40.187Z,97339.73
2019-04-05T03:19:17.546Z,97330.94
2019-04-05T03:21:55.336Z,97346.36
2019-04-05T03:24:33.827Z,97354.72
2019-04-05T03:27:11.093Z,97355.09
2019-04-05T03:29:43.571Z,97358.80
2019-04-05T03:32:16.377Z,97354.23
2019-04-05T03:34:54.338Z,97348.91
2019-04-05T03:37:26.038Z,97349.46
2019-04-05T03:40:01.040Z,97346.88
2019-04-05T03:42:33.326Z,97350.67
2019-04-05T03:45:16.106Z,97354.62
2019-04-05T03:47:48.004Z,97363.56
2019-04-05T03:50:25.610Z,97364.03
2019-04-05T03:52:58.105Z,97373.21
2019-04-05T03:55:30.279Z,97376.91
2019-04-05T03:58:04.532Z,97376.89
2019-04-05T04:00:45.819Z,97379.50
2019-04-05T04:03:17.905Z,97391.62
2019-04-05T04:05:52.872Z,97403.85
2019-04-05T04:08:25.528Z,97399.89
2019-04-05T04:11:05.167Z,97402.11
2019-04-05T04:13:37.033Z,97399.92
2019-04-05T04:16:18.322Z,97393.67
2019-04-05T04:18:50.136Z,97390.91
2019-04-05T04:21:44.159Z,97389.88
2019-04-05T04:24:16.319Z,97380.94
2019-04-05T04:26:48.230Z,97388.42
2019-04-05T04:29:23.100Z,97385.36
2019-04-05T04:31:55.449Z,97394.19
2019-04-05T04:34:27.583Z,97395.77
2019-04-05T04:36:59.945Z,97408.19
2019-04-05T04:39:31.787Z,97406.88
2019-04-05T04:42:07.893Z,97407.75
2019-04-05T04:44:39.704Z,97411.80
2019-04-05T04:47:25.580Z,97415.19
2019-04-05T04:49:48.875Z,97408.91
2019-04-05T04:52:27.413Z,97405.98
2019-04-05T04:55:02.215Z,97415.17
2019-04-05T04:57:39.118Z,97428.52
2019-04-05T05:00:11.186Z,97437.27
2019-04-05T05:02:46.237Z,97439.08
2019-04-05T05:05:20.083Z,97439.91
2019-04-05T05:07:59.346Z,97440.45
2019-04-05T05:10:32.136Z,97438.91
2019-04-05T05:13:11.600Z,97432.84
2019-04-05T05:15:43.657Z,97430.38
2019-04-05T05:18:15.628Z,97425.23
2019-04-05T05:20:47.634Z,97436.19
2019-04-05T05:23:29.715Z,97440.47
2019-04-05T05:26:01.565Z,97432.52
2019-04-05T05:28:37.016Z,97436.96
2019-04-05T05:31:09.003Z,97432.30
2019-04-05T05:33:47.723Z,97436.39
2019-04-05T05:36:20.421Z,97432.83
2019-04-05T05:38:58.609Z,97428.61
2019-04-05T05:41:30.507Z,97437.13
2019-04-05T05:44:15.378Z,97440.58
2019-04-05T05:46:47.246Z,97441.38
2019-04-05T05:49:23.212Z,97432.69
2019-04-05T05:51:55.972Z,97433.51
2019-04-05T05:54:30.811Z,97439.89
2019-04-05T05:57:02.809Z,97449.19
2019-04-05T05:59:38.182Z,97444.81
2019-04-05T06:02:10.462Z,97450.85
2019-04-05T06:04:49.023Z,97459.72
2019-04-05T06:07:20.674Z,97462.20
2019-04-05T06:09:56.882Z,97466.97
2019-04-05T06:12:29.034Z,97472.30
2019-04-05T06:15:12.561Z,97465.95
2019-04-05T06:17:45.029Z,97472.61
2019-04-05T06:20:21.271Z,97467.13
2019-04-05T06:22:54.664Z,97476.38
2019-04-05T06:25:30.488Z,97476.24
2019-04-05T06:28:03.589Z,97475.44
2019-04-05T06:30:44.646Z,97479.19
2019-04-05T06:33:30.692Z,97482.17
2019-04-05T06:35:54.680Z,97481.66
2019-04-05T06:38:26.795Z,97489.55
2019-04-05T06:41:01.867Z,97489.89
2019-04-05T06:43:33.793Z,97490.65
2019-04-05T06:46:16.281Z,97487.77
2019-04-05T06:48:48.300Z,97501.09
2019-04-05T06:51:23.805Z,97506.78
2019-04-05T06:53:55.639Z,97497.92
2019-04-05T06:56:35.085Z,97507.50
2019-04-05T06:59:07.639Z,97508.45
2019-04-05T07:01:45.641Z,97515.10
2019-04-05T07:04:20.729Z,97521.33
2019-04-05T07:06:52.763Z,97531.63
2019-04-05T07:09:24.693Z,97527.25
2019-04-05T07:12:07.926Z,97528.62
2019-04-05T07:14:41.418Z,97532.78
2019-04-05T07:17:17.404Z,97533.13
2019-04-05T07:19:49.511Z,97541.59
2019-04-05T07:22:37.053Z,97551.58
2019-04-05T07:24:58.241Z,97546.02
2019-04-05T07:27:39.091Z,97548.28
2019-04-05T07:30:11.161Z,97557.88
2019-04-05T07:32:49.283Z,97560.50
2019-04-05T07:35:32.684Z,97563.86
2019-04-05T07:37:55.863Z,97566.84
2019-04-05T07:40:28.404Z,97569.93
2019-04-05T07:43:10.176Z,97567.23
2019-04-05T07:45:42.426Z,97561.23
2019-04-05T07:48:14.910Z,97554.98
2019-04-05T07:50:49.668Z,97566.80
2019-04-05T07:53:25.684Z,97570.64
2019-04-05T07:55:57.674Z,97571.83
2019-04-05T07:58:32.597Z,97577.56
2019-04-05T08:01:07.847Z,97569.87
2019-04-05T08:03:49.103Z,97568.13
2019-04-05T08:06:22.254Z,97571.91
2019-04-05T08:09:08.804Z,97573.14
2019-04-05T08:11:43.423Z,97575.34
2019-04-05T08:14:18.149Z,97569.48
2019-04-05T08:16:50.413Z,97570.72
2019-04-05T08:19:22.501Z,97565.13
2019-04-05T08:21:55.358Z,97579.55
2019-04-05T08:24:28.467Z,97574.63
2019-04-05T08:27:00.651Z,97577.45
2019-04-05T08:29:38.890Z,97576.87
2019-04-05T08:32:14.699Z,97597.17
2019-04-05T08:34:52.004Z,97582.39
2019-04-05T08:37:24.671Z,97581.23
2019-04-05T08:40:07.559Z,97587.59
2019-04-05T08:42:39.387Z,97598.53
2019-04-05T08:45:11.616Z,97590.55
2019-04-05T08:47:43.619Z,97587.70
2019-04-05T08:50:22.078Z,97593.92
2019-04-05T08:52:54.243Z,97593.90
2019-04-05T08:55:33.357Z,97597.27
2019-04-05T08:58:05.642Z,97594.56
2019-04-05T09:00:47.044Z,97595.79
2019-04-05T09:03:19.071Z,97600.03
2019-04-05T09:05:55.420Z,97596.73
2019-04-05T09:08:27.541Z,97602.91
2019-04-05T09:11:02.715Z,97605.51
2019-04-05T09:13:34.448Z,97603.09
2019-04-05T09:16:11.820Z,97602.73
2019-04-05T09:18:44.521Z,97610.62
2019-04-05T09:21:28.943Z,97612.88
2019-04-05T09:24:02.320Z,97611.81
2019-04-05T09:26:38.139Z,97608.51
2019-04-05T09:29:09.920Z,97618.06
2019-04-05T09:31:42.133Z,97608.63
2019-04-05T09:34:15.711Z,97612.28
2019-04-05T09:36:54.319Z,97609.26
2019-04-05T09:39:26.458Z,97607.80
2019-04-05T09:42:04.659Z,97611.22
2019-04-05T09:44:38.547Z,97619.00
2019-04-05T09:47:15.045Z,97613.46
2019-04-05T09:49:47.252Z,97612.98
2019-04-05T09:52:26.805Z,97618.16
2019-04-05T09:54:59.302Z,97619.56
2019-04-05T09:57:42.092Z,97613.91
2019-04-05T10:00:20.913Z,97614.91
2019-04-05T10:02:55.013Z,97622.13
2019-04-05T10:05:27.367Z,97633.03
2019-04-05T10:07:58.889Z,97624.70
2019-04-05T10:10:31.312Z,97631.16
2019-04-05T10:13:12.946Z,97631.69
2019-04-05T10:15:46.156Z,97638.58
2019-04-05T10:18:18.443Z,97642.05
2019-04-05T10:20:51.089Z,97643.56
2019-04-05T10:23:29.922Z,97637.25
2019-04-05T10:26:02.054Z,97640.94
2019-04-05T10:28:43.220Z,97640.41
2019-04-05T10:31:15.301Z,97643.30
2019-04-05T10:33:50.223Z,97646.27
2019-04-05T10:36:22.577Z,97638.60
2019-04-05T10:38:58.285Z,97647.39
2019-04-05T10:41:30.177Z,97648.65
2019-04-05T10:44:19.758Z,97652.45
2019-04-05T10:46:52.327Z,97654.17
2019-04-05T10:49:24.357Z,97655.55
2019-04-05T10:51:57.015Z,97653.33
2019-04-05T10:54:31.941Z,97650.84
2019-04-05T10:57:03.927Z,97653.09
2019-04-05T10:59:45.150Z,97650.00
2019-04-05T11:02:18.723Z,97655.72
2019-04-05T11:04:54.983Z,97655.74
2019-04-05T11:07:26.921Z,97653.84
2019-04-05T11:10:01.600Z,97657.27
2019-04-05T11:12:34.135Z,97656.95
2019-04-05T11:15:09.755Z,97650.58
2019-04-05T11:17:42.537Z,97657.38
2019-04-05T11:20:21.876Z,97647.20
2019-04-05T11:22:55.432Z,97652.63
2019-04-05T11:25:34.549Z,97646.34
2019-04-05T11:28:06.582Z,97653.05
2019-04-05T11:30:49.895Z,97654.81
2019-04-05T11:33:22.099Z,97645.78
2019-04-05T11:35:58.174Z,97650.68
2019-04-05T11:38:31.042Z,97655.58
2019-04-05T11:41:07.579Z,97656.77
2019-04-05T11:43:47.102Z,97652.95
2019-04-05T11:46:19.191Z,97652.21
2019-04-05T11:48:52.085Z,97656.83
2019-04-05T11:51:26.926Z,97652.27
2019-04-05T11:53:59.758Z,97654.88
2019-04-05T11:56:44.287Z,97662.36
2019-04-05T11:59:16.979Z,97668.19
2019-04-05T12:02:07.839Z,97670.08
2019-04-05T12:04:42.802Z,97658.38
2019-04-05T12:07:14.529Z,97661.39
2019-04-05T12:09:48.023Z,97663.62
2019-04-05T12:12:20.886Z,97669.41
2019-04-05T12:14:53.271Z,97667.11
2019-04-05T12:17:25.770Z,97672.77
2019-04-05T12:20:00.584Z,97672.79
2019-04-05T12:22:34.997Z,97675.72
2019-04-05T12:25:07.428Z,97677.44
2019-04-05T12:27:41.261Z,97673.52
2019-04-05T12:30:16.487Z,97676.04
2019-04-05T12:32:49.429Z,97674.19
2019-04-05T12:35:22.091Z,97677.98
2019-04-05T12:38:02.762Z,97677.02
2019-04-05T12:40:35.805Z,97673.78
2019-04-05T12:43:13.484Z,97677.34
2019-04-05T12:45:45.988Z,97676.92
2019-04-05T12:48:21.101Z,97679.34
2019-04-05T12:51:00.996Z,97677.27
2019-04-05T12:53:31.607Z,97672.79
2019-04-05T12:56:06.359Z,97674.05
2019-04-05T12:58:39.656Z,97683.22
2019-04-05T13:01:13.265Z,97677.34
2019-04-05T13:03:51.138Z,97672.16
2019-04-05T13:06:24.158Z,97675.22
2019-04-05T13:09:00.196Z,97670.39
2019-04-05T13:11:32.829Z,97667.61
2019-04-05T13:14:12.959Z,97668.66
2019-04-05T13:16:45.357Z,97667.46
2019-04-05T13:19:23.949Z,97660.56
2019-04-05T13:21:56.122Z,97663.06
2019-04-05T13:24:31.221Z,97665.45
2019-04-05T13:27:03.421Z,97667.19
2019-04-05T13:29:40.343Z,97661.28
2019-04-05T13:32:13.550Z,97664.25
2019-04-05T13:34:49.132Z,97665.56
2019-04-05T13:37:21.384Z,97670.60
2019-04-05T13:40:06.166Z,97672.87
2019-04-05T13:42:37.783Z,97675.09
2019-04-05T13:45:11.195Z,97675.05
2019-04-05T13:47:44.594Z,97674.92
2019-04-05T13:50:24.968Z,97673.77
2019-04-05T13:52:58.558Z,97678.92
2019-04-05T13:55:31.476Z,97681.19
2019-04-05T13:58:04.632Z,97682.70
2019-04-05T14:00:43.398Z,97682.02
2019-04-05T14:03:15.828Z,97682.86
2019-04-05T14:05:57.315Z,97680.08
2019-04-05T14:08:38.867Z,97680.91
2019-04-05T14:11:05.713Z,97681.70
2019-04-05T14:13:42.658Z,97679.56
2019-04-05T14:16:14.810Z,97686.55
2019-04-05T14:18:49.797Z,97688.98
2019-04-05T14:21:39.930Z,97691.25
2019-04-05T14:24:04.351Z,97687.32
2019-04-05T14:26:39.908Z,97685.69
2019-04-05T14:29:12.267Z,97691.92
2019-04-05T14:31:45.427Z,97687.80
2019-04-05T14:34:17.460Z,97684.94
2019-04-05T14:37:00.252Z,97687.36
2019-04-05T14:39:33.052Z,97684.27
2019-04-05T14:42:14.799Z,97687.25
2019-04-05T14:44:50.568Z,97687.16
2019-04-05T14:47:23.133Z,97689.63
2019-04-05T14:49:55.507Z,97683.42
2019-04-05T14:52:30.744Z,97687.18
2019-04-05T14:55:01.340Z,97683.31
2019-04-05T14:57:36.672Z,97683.22
2019-04-05T15:00:14.778Z,97681.11
2019-04-05T15:02:46.438Z,97685.88
2019-04-05T15:05:18.310Z,97687.47
2019-04-05T15:07:59.250Z,97684.37
2019-04-05T15:10:31.007Z,97689.27
2019-04-05T15:13:16.203Z,97683.34
2019-04-05T15:15:49.414Z,97681.08
2019-04-05T15:18:24.206Z,97681.27
2019-04-05T15:20:56.112Z,97684.56
2019-04-05T15:23:28.066Z,97684.05
2019-04-05T15:26:01.227Z,97687.22
2019-04-05T15:28:33.361Z,97683.44
2019-04-05T15:31:05.340Z,97682.06
2019-04-05T15:33:38.572Z,97687.28
2019-04-05T15:36:10.806Z,97686.58
2019-04-05T15:38:43.234Z,97690.80
2019-04-05T15:41:17.818Z,97685.16
2019-04-05T15:43:50.498Z,97683.63
2019-04-05T15:46:23.988Z,97683.11
2019-04-05T15:48:56.578Z,97690.30
2019-04-05T15:51:28.561Z,97692.56
2019-04-05T15:54:01.501Z,97687.12
2019-04-05T15:56:35.275Z,97688.88
2019-04-05T15:59:07.847Z,97688.31
2019-04-05T16:01:41.085Z,97687.84
2019-04-05T16:04:14.511Z,97691.58
2019-04-05T16:06:47.881Z,97691.41
2019-04-05T16:09:20.206Z,97685.77
2019-04-05T16:11:52.201Z,97686.69
2019-04-05T16:14:25.505Z,97681.77
2019-04-05T16:16:57.403Z,97681.72
2019-04-05T16:19:29.850Z,97681.04
2019-04-05T16:22:02.009Z,97678.74
2019-04-05T16:24:34.790Z,97681.56
2019-04-05T16:27:06.589Z,97679.42
2019-04-05T16:29:39.300Z,97685.65
2019-04-05T16:32:11.628Z,97684.34
2019-04-05T16:34:43.556Z,97679.58
2019-04-05T16:37:15.607Z,97680.73
2019-04-05T16:39:47.392Z,97685.34
2019-04-05T16:42:19.767Z,97685.69
2019-04-05T16:44:54.204Z,97686.21
2019-04-05T16:47:25.912Z,97685.77
2019-04-05T16:50:07.098Z,97688.59
2019-04-05T16:52:44.634Z,97683.51
2019-04-05T16:55:13.186Z,97685.45
2019-04-05T16:57:54.822Z,97688.67
2019-04-05T17:00:26.949Z,97688.67
2019-04-05T17:02:58.853Z,97688.55
2019-04-05T17:05:37.655Z,97687.12
2019-04-05T17:08:09.569Z,97685.49
2019-04-05T17:10:44.693Z,97681.09
2019-04-05T17:13:16.961Z,97678.61
2019-04-05T17:16:02.143Z,97683.31
2019-04-05T17:18:34.351Z,97684.65
2019-04-05T17:21:06.638Z,97678.73
2019-04-05T17:23:38.336Z,97685.05
2019-04-05T17:26:12.906Z,97680.77
2019-04-05T17:28:45.847Z,97682.70
2019-04-05T17:31:18.386Z,97677.86
2019-04-05T17:33:50.575Z,97675.76
2019-04-05T17:36:22.432Z,97679.27
2019-04-05T17:38:54.465Z,97685.81
2019-04-05T17:41:26.823Z,97683.66
2019-04-05T17:43:59.347Z,97686.34
2019-04-05T17:46:31.653Z,97693.14
2019-04-05T17:49:04.032Z,97683.19
2019-04-05T17:51:36.466Z,97688.19
2019-04-05T17:54:09.751Z,97685.67
2019-04-05T17:56:42.205Z,97687.97
2019-04-05T17:59:17.973Z,97689.82
2019-04-05T18:01:50.164Z,97685.27
2019-04-05T18:04:22.481Z,97688.23
2019-04-05T18:06:54.883Z,97692.98
2019-04-05T18:09:28.028Z,97694.55
2019-04-05T18:12:00.384Z,97691.25
2019-04-05T18:14:32.724Z,97698.77
2019-04-05T18:17:04.682Z,97713.58
2019-04-05T18:19:36.634Z,97715.97
2019-04-05T18:22:08.207Z,97717.41
2019-04-05T18:24:40.608Z,97706.55
2019-04-05T18:27:12.924Z,97723.38
2019-04-05T18:29:44.560Z,97732.11
2019-04-05T18:32:16.826Z,97736.81
2019-04-05T18:34:49.248Z,97728.77
2019-04-05T18:37:21.670Z,97725.08
2019-04-05T18:39:54.303Z,97730.24
2019-04-05T18:42:26.536Z,97734.02
2019-04-05T18:44:58.772Z,97743.45
2019-04-05T18:47:31.359Z,97742.89
2019-04-05T18:50:03.602Z,97745.83
2019-04-05T18:52:35.539Z,97747.28
2019-04-05T18:55:10.450Z,97747.14
2019-04-05T18:57:42.302Z,97755.39
2019-04-05T19:00:20.638Z,97759.08
2019-04-05T19:02:52.724Z,97767.23
2019-04-05T19:05:25.617Z,97765.36
2019-04-05T19:07:57.617Z,97772.00
2019-04-05T19:10:50.384Z,97782.92
2019-04-05T19:13:22.445Z,97779.60
2019-04-05T19:15:54.594Z,97790.33
2019-04-05T19:18:30.012Z,97789.03
2019-04-05T19:21:02.456Z,97793.78
2019-04-05T19:23:34.791Z,97801.80
2019-04-05T19:26:07.529Z,97798.46
2019-04-05T19:28:39.484Z,97800.41
2019-04-05T19:49:30.990Z,97814.08
2019-04-05T19:52:03.526Z,97819.56
2019-04-05T19:54:35.789Z,97818.28
2019-04-05T19:57:13.828Z,97822.58
2019-04-05T19:59:47.515Z,97817.62
2019-04-05T20:02:31.176Z,97823.20
2019-04-05T20:05:02.996Z,97824.23
2019-04-05T20:07:35.060Z,97819.61
2019-04-05T20:10:07.287Z,97830.58
2019-04-05T20:12:40.003Z,97839.12
2019-04-05T20:15:14.066Z,97833.94
2019-04-05T20:17:53.734Z,97835.52
2019-04-05T20:20:25.927Z,97839.81
2019-04-05T20:23:02.404Z,97851.13
2019-04-05T20:25:35.145Z,97850.84
2019-04-05T20:28:10.299Z,97849.16
2019-04-05T20:30:42.397Z,97847.52
2019-04-05T20:33:32.564Z,97854.38
2019-04-05T20:36:09.841Z,97853.64
2019-04-05T20:38:53.765Z,97855.29
2019-04-05T20:41:23.131Z,97857.80
2019-04-05T20:43:55.380Z,97859.48
2019-04-05T20:46:27.409Z,97862.91
2019-04-05T20:49:00.009Z,97865.87
2019-04-05T20:51:33.706Z,97863.02
2019-04-05T20:54:05.712Z,97862.36
2019-04-05T20:56:37.592Z,97871.43
2019-04-05T20:59:13.561Z,97872.81
2019-04-05T21:01:45.440Z,97866.80
2019-04-05T21:04:27.486Z,97866.81
2019-04-05T21:06:58.878Z,97871.13
2019-04-05T21:09:38.214Z,97878.35
2019-04-05T21:12:10.849Z,97875.09
2019-04-05T21:14:48.848Z,97875.30
2019-04-05T21:17:20.520Z,97880.38
2019-04-05T21:19:59.418Z,97886.81
2019-04-05T21:22:30.954Z,97881.45
2019-04-05T21:25:06.804Z,97876.50
2019-04-05T21:27:42.976Z,97873.44
2019-04-05T21:30:15.454Z,97880.83
2019-04-05T21:32:47.141Z,97881.57
2019-04-05T21:35:27.643Z,97878.61
2019-04-05T21:37:59.310Z,97884.31
2019-04-05T21:40:40.201Z,97888.55
2019-04-05T21:43:12.163Z,97897.39
2019-04-05T21:45:49.568Z,97897.56
2019-04-05T21:48:21.438Z,97887.38
2019-04-05T21:50:56.455Z,97893.42
2019-04-05T21:53:28.246Z,97898.58
2019-04-05T21:56:06.008Z,97899.13
2019-04-05T21:58:38.886Z,97892.47
2019-04-05T22:01:17.279Z,97893.38
2019-04-05T22:03:49.971Z,97888.40
2019-04-05T22:06:28.424Z,97892.92
2019-04-05T22:09:00.224Z,97888.61
2019-04-05T22:11:37.395Z,97890.28
2019-04-05T22:14:09.062Z,97893.77
2019-04-05T22:16:49.196Z,97885.47
2019-04-05T22:19:21.536Z,97888.34
2019-04-05T22:21:59.493Z,97884.34
2019-04-05T22:24:31.396Z,97888.20
2019-04-05T22:27:06.890Z,97893.41
2019-04-05T22:29:38.535Z,97895.66
2019-04-05T22:32:16.059Z,97899.95
2019-04-05T22:34:47.670Z,97898.91
2019-04-05T22:37:24.754Z,97905.70
2019-04-05T22:39:56.475Z,97906.13
2019-04-05T22:45:09.214Z,97902.16
2019-04-05T22:47:47.487Z,97898.09
2019-04-05T22:50:20.035Z,97898.21
2019-04-05T22:52:56.094Z,97890.51
2019-04-05T22:55:28.314Z,97891.59
2019-04-05T22:58:08.492Z,97897.73
2019-04-05T23:00:40.608Z,97909.78
2019-04-05T23:03:17.476Z,97899.44
2019-04-05T23:05:49.541Z,97900.57
2019-04-05T23:08:39.533Z,97897.24
2019-04-05T23:11:11.428Z,97900.52
2019-04-05T23:13:43.400Z,97909.19
2019-04-05T23:16:16.763Z,97907.57
2019-04-05T23:18:54.369Z,97906.66
2019-04-05T23:21:26.867Z,97904.66
2019-04-05T23:24:01.684Z,97910.13
2019-04-05T23:26:33.624Z,97906.48
2019-04-05T23:29:17.321Z,97899.11
2019-04-05T23:31:48.719Z,97904.58
2019-04-05T23:34:21.772Z,97902.49
2019-04-05T23:36:54.311Z,97905.38
2019-04-05T23:39:26.136Z,97905.16
2019-04-05T23:41:58.395Z,97896.52
2019-04-05T23:44:30.380Z,97887.13
2019-04-05T23:47:02.459Z,97898.72
2019-04-05T23:49:34.380Z,97896.43
2019-04-05T23:52:06.821Z,97899.48
2019-04-05T23:54:39.456Z,97887.05
2019-04-05T23:57:11.179Z,97883.55
2019-04-05T23:59:42.993Z,97876.22
